SSF153 ULWC-UUEE
Flight info
| Callsign | SSF153 |
|---|---|
| Flight time | 1h 18m |
| Altitude | 26000 |
| Route | N0420F260 ADIMU P65 ROMTA |
| Aircraft | CRJ2/M-J/L |
Departure
| Time | 2026-04-25 21:31 |
|---|---|
| Airport | Cherepovets Airport (ULWC) |
Arrival
| Time | 2026-04-25 22:49 |
|---|---|
| Airport | Sheremetyevo International Airport (UUEE) |
| Time | Latitude | Longitude | Altitude | Speed | Heading |
|---|---|---|---|---|---|
| 2026-04-25 21:23 | 59.28033 | 38.02125 | 375 ft | 0 kts | 313° |
| 2026-04-25 21:26 | 59.28032 | 38.02125 | 375 ft | 0 kts | 313° |
| 2026-04-25 21:29 | 59.28035 | 38.02119 | 375 ft | 4 kts | 313° |
| 2026-04-25 21:29 | 59.28040 | 38.02049 | 375 ft | 9 kts | 242° |
| 2026-04-25 21:30 | 59.27974 | 38.02029 | 375 ft | 13 kts | 154° |
| 2026-04-25 21:30 | 59.27894 | 38.02101 | 375 ft | 14 kts | 132° |
| 2026-04-25 21:30 | 59.27829 | 38.02240 | 372 ft | 8 kts | 160° |
| 2026-04-25 21:30 | 59.27751 | 38.02131 | 373 ft | 45 kts | 224° |
| 2026-04-25 21:31 | 59.27059 | 38.00917 | 371 ft | 149 kts | 222° |
| 2026-04-25 21:31 | 59.26218 | 37.99420 | 841 ft | 176 kts | 223° |
| 2026-04-25 21:31 | 59.25235 | 37.97724 | 1479 ft | 199 kts | 215° |
| 2026-04-25 21:31 | 59.23844 | 37.97177 | 2144 ft | 219 kts | 169° |
| 2026-04-25 21:32 | 59.22360 | 37.98171 | 2985 ft | 228 kts | 168° |
| 2026-04-25 21:32 | 59.20823 | 37.97803 | 3893 ft | 229 kts | 201° |
| 2026-04-25 21:32 | 59.19346 | 37.96561 | 4823 ft | 232 kts | 201° |
| 2026-04-25 21:32 | 59.17762 | 37.95844 | 5704 ft | 236 kts | 186° |
| 2026-04-25 21:33 | 59.16106 | 37.95676 | 6576 ft | 240 kts | 182° |
| 2026-04-25 21:33 | 59.14426 | 37.95563 | 7418 ft | 243 kts | 183° |
| 2026-04-25 21:33 | 59.12724 | 37.95352 | 8246 ft | 246 kts | 185° |
| 2026-04-25 21:33 | 59.11028 | 37.95060 | 9037 ft | 249 kts | 186° |
| 2026-04-25 21:34 | 59.09285 | 37.94743 | 9813 ft | 252 kts | 186° |
| 2026-04-25 21:34 | 59.07525 | 37.94423 | 10562 ft | 255 kts | 185° |
| 2026-04-25 21:34 | 59.05741 | 37.94131 | 11303 ft | 258 kts | 185° |
| 2026-04-25 21:34 | 59.03956 | 37.93848 | 12019 ft | 261 kts | 185° |
| 2026-04-25 21:35 | 59.02121 | 37.93558 | 12724 ft | 264 kts | 185° |
| 2026-04-25 21:35 | 59.00272 | 37.93266 | 13412 ft | 267 kts | 185° |
| 2026-04-25 21:35 | 58.98424 | 37.92976 | 14073 ft | 270 kts | 185° |
| 2026-04-25 21:35 | 58.96531 | 37.92679 | 14733 ft | 273 kts | 185° |
| 2026-04-25 21:36 | 58.94641 | 37.92382 | 15367 ft | 276 kts | 185° |
| 2026-04-25 21:36 | 58.92714 | 37.92078 | 15992 ft | 278 kts | 185° |
| 2026-04-25 21:36 | 58.90770 | 37.91772 | 16597 ft | 281 kts | 185° |
| 2026-04-25 21:36 | 58.88808 | 37.91460 | 17191 ft | 284 kts | 185° |
| 2026-04-25 21:37 | 58.86851 | 37.91168 | 17758 ft | 287 kts | 180° |
| 2026-04-25 21:37 | 58.86177 | 37.91243 | 17932 ft | 288 kts | 171° |
| 2026-04-25 21:37 | 58.82932 | 37.92942 | 18857 ft | 292 kts | 160° |
| 2026-04-25 21:37 | 58.81239 | 37.95038 | 19333 ft | 296 kts | 132° |
| 2026-04-25 21:38 | 58.79764 | 37.97804 | 19820 ft | 298 kts | 150° |
| 2026-04-25 21:38 | 58.77804 | 37.98887 | 20283 ft | 299 kts | 182° |
| 2026-04-25 21:38 | 58.75812 | 37.97838 | 20750 ft | 300 kts | 212° |
| 2026-04-25 21:38 | 58.74073 | 37.95600 | 21240 ft | 302 kts | 213° |
| 2026-04-25 21:39 | 58.72228 | 37.93707 | 21692 ft | 305 kts | 202° |
| 2026-04-25 21:39 | 58.70189 | 37.92534 | 22150 ft | 307 kts | 191° |
| 2026-04-25 21:39 | 58.68061 | 37.91995 | 22598 ft | 310 kts | 185° |
| 2026-04-25 21:39 | 58.65904 | 37.92143 | 22992 ft | 313 kts | 164° |
| 2026-04-25 21:40 | 58.64001 | 37.94169 | 23385 ft | 316 kts | 135° |
| 2026-04-25 21:40 | 58.63124 | 37.96394 | 23640 ft | 317 kts | 116° |
| 2026-04-25 21:40 | 58.62672 | 38.01879 | 24133 ft | 320 kts | 79° |
| 2026-04-25 21:40 | 58.63050 | 38.06093 | 24482 ft | 323 kts | 91° |
| 2026-04-25 21:41 | 58.62796 | 38.08901 | 24700 ft | 324 kts | 111° |
| 2026-04-25 21:41 | 58.61519 | 38.12444 | 25047 ft | 325 kts | 141° |
| 2026-04-25 21:41 | 58.59560 | 38.14450 | 25393 ft | 325 kts | 166° |
| 2026-04-25 21:41 | 58.57323 | 38.15130 | 25758 ft | 326 kts | 174° |
| 2026-04-25 21:42 | 58.55068 | 38.15787 | 26100 ft | 329 kts | 166° |
| 2026-04-25 21:42 | 58.52915 | 38.17324 | 26416 ft | 331 kts | 151° |
| 2026-04-25 21:42 | 58.51027 | 38.19895 | 26738 ft | 335 kts | 139° |
| 2026-04-25 21:42 | 58.49316 | 38.22909 | 26896 ft | 343 kts | 136° |
| 2026-04-25 21:43 | 58.47554 | 38.26080 | 26969 ft | 354 kts | 137° |
| 2026-04-25 21:43 | 58.45690 | 38.29284 | 27000 ft | 365 kts | 139° |
| 2026-04-25 21:43 | 58.43715 | 38.32508 | 27016 ft | 378 kts | 140° |
| 2026-04-25 21:43 | 58.41672 | 38.35784 | 27022 ft | 389 kts | 140° |
| 2026-04-25 21:44 | 58.39575 | 38.39097 | 27024 ft | 401 kts | 140° |
| 2026-04-25 21:44 | 58.37411 | 38.42578 | 27023 ft | 411 kts | 140° |
| 2026-04-25 21:44 | 58.32934 | 38.49867 | 27019 ft | 432 kts | 140° |
| 2026-04-25 21:45 | 58.30646 | 38.53573 | 27017 ft | 441 kts | 140° |
| 2026-04-25 21:45 | 58.29090 | 38.56093 | 27014 ft | 442 kts | 140° |
| 2026-04-25 21:45 | 58.25967 | 38.61130 | 27006 ft | 443 kts | 140° |
| 2026-04-25 21:45 | 58.23610 | 38.64927 | 27001 ft | 444 kts | 140° |
| 2026-04-25 21:46 | 58.21240 | 38.68738 | 26997 ft | 445 kts | 140° |
| 2026-04-25 21:46 | 58.18872 | 38.72539 | 26996 ft | 446 kts | 140° |
| 2026-04-25 21:46 | 58.16519 | 38.76310 | 26995 ft | 446 kts | 140° |
| 2026-04-25 21:46 | 58.14140 | 38.80114 | 26994 ft | 447 kts | 140° |
| 2026-04-25 21:47 | 58.11753 | 38.83924 | 26993 ft | 447 kts | 140° |
| 2026-04-25 21:47 | 58.09396 | 38.87680 | 26994 ft | 447 kts | 140° |
| 2026-04-25 21:47 | 58.07003 | 38.91485 | 26994 ft | 447 kts | 140° |
| 2026-04-25 21:47 | 58.04619 | 38.95270 | 26994 ft | 447 kts | 140° |
| 2026-04-25 21:48 | 58.02257 | 38.99012 | 26994 ft | 448 kts | 140° |
| 2026-04-25 21:48 | 57.99866 | 39.02797 | 26994 ft | 449 kts | 140° |
| 2026-04-25 21:48 | 57.97456 | 39.06601 | 26994 ft | 449 kts | 140° |
| 2026-04-25 21:48 | 57.95075 | 39.10354 | 26995 ft | 450 kts | 140° |
| 2026-04-25 21:49 | 57.92666 | 39.14144 | 26994 ft | 450 kts | 140° |
| 2026-04-25 21:49 | 57.90283 | 39.17884 | 26995 ft | 450 kts | 140° |
| 2026-04-25 21:49 | 57.87866 | 39.21671 | 26995 ft | 449 kts | 140° |
| 2026-04-25 21:49 | 57.85455 | 39.25444 | 26995 ft | 449 kts | 140° |
| 2026-04-25 21:50 | 57.83071 | 39.29167 | 26994 ft | 449 kts | 140° |
| 2026-04-25 21:50 | 57.80660 | 39.32925 | 26994 ft | 448 kts | 140° |
| 2026-04-25 21:50 | 57.78272 | 39.36644 | 26994 ft | 448 kts | 140° |
| 2026-04-25 21:50 | 57.76687 | 39.39111 | 26994 ft | 448 kts | 140° |
| 2026-04-25 21:51 | 57.73488 | 39.44072 | 26994 ft | 447 kts | 141° |
| 2026-04-25 21:51 | 57.71087 | 39.47788 | 26995 ft | 447 kts | 141° |
| 2026-04-25 21:51 | 57.68709 | 39.51464 | 26995 ft | 446 kts | 141° |
| 2026-04-25 21:51 | 57.66312 | 39.55162 | 26995 ft | 446 kts | 141° |
| 2026-04-25 21:52 | 57.63903 | 39.58872 | 26995 ft | 446 kts | 141° |
| 2026-04-25 21:52 | 57.61528 | 39.62522 | 26996 ft | 446 kts | 140° |
| 2026-04-25 21:52 | 57.59114 | 39.66225 | 26996 ft | 445 kts | 141° |
| 2026-04-25 21:52 | 57.56753 | 39.69841 | 26996 ft | 445 kts | 141° |
| 2026-04-25 21:53 | 57.54352 | 39.73511 | 26996 ft | 445 kts | 141° |
| 2026-04-25 21:53 | 57.51949 | 39.77178 | 26996 ft | 445 kts | 141° |
| 2026-04-25 21:53 | 57.49586 | 39.80782 | 26996 ft | 445 kts | 141° |
| 2026-04-25 21:53 | 57.47180 | 39.84442 | 26996 ft | 444 kts | 141° |
| 2026-04-25 21:54 | 57.44774 | 39.88097 | 26997 ft | 444 kts | 141° |
| 2026-04-25 21:54 | 57.42409 | 39.91681 | 26997 ft | 444 kts | 141° |
| 2026-04-25 21:54 | 57.40001 | 39.95322 | 26996 ft | 444 kts | 141° |
| 2026-04-25 21:54 | 57.37602 | 39.98944 | 26996 ft | 444 kts | 141° |
| 2026-04-25 21:55 | 57.35207 | 40.02557 | 26997 ft | 443 kts | 141° |
| 2026-04-25 21:55 | 57.32839 | 40.06123 | 26998 ft | 443 kts | 141° |
| 2026-04-25 21:55 | 57.30436 | 40.09734 | 26997 ft | 443 kts | 141° |
| 2026-04-25 21:55 | 57.28035 | 40.13335 | 26998 ft | 444 kts | 141° |
| 2026-04-25 21:56 | 57.25634 | 40.16929 | 26998 ft | 444 kts | 141° |
| 2026-04-25 21:56 | 57.24048 | 40.19301 | 26998 ft | 444 kts | 141° |
| 2026-04-25 21:56 | 57.20818 | 40.24120 | 26997 ft | 444 kts | 141° |
| 2026-04-25 21:56 | 57.18442 | 40.27662 | 26996 ft | 445 kts | 141° |
| 2026-04-25 21:57 | 57.16031 | 40.31249 | 26999 ft | 445 kts | 141° |
| 2026-04-25 21:57 | 57.13612 | 40.34840 | 26998 ft | 445 kts | 141° |
| 2026-04-25 21:57 | 57.11192 | 40.38424 | 26998 ft | 446 kts | 141° |
| 2026-04-25 21:57 | 57.08792 | 40.41973 | 26999 ft | 446 kts | 141° |
| 2026-04-25 21:58 | 57.06361 | 40.45565 | 26999 ft | 446 kts | 141° |
| 2026-04-25 21:58 | 57.03963 | 40.49102 | 26999 ft | 446 kts | 141° |
| 2026-04-25 21:58 | 57.01536 | 40.52676 | 26999 ft | 446 kts | 141° |
| 2026-04-25 21:58 | 56.99110 | 40.56235 | 26998 ft | 447 kts | 141° |
| 2026-04-25 21:59 | 56.96679 | 40.59801 | 26997 ft | 447 kts | 141° |
| 2026-04-25 21:59 | 56.94271 | 40.63331 | 26999 ft | 447 kts | 141° |
| 2026-04-25 21:59 | 56.91830 | 40.66897 | 26999 ft | 447 kts | 141° |
| 2026-04-25 22:00 | 56.86984 | 40.73962 | 26999 ft | 447 kts | 142° |
| 2026-04-25 22:00 | 56.84541 | 40.77516 | 26998 ft | 447 kts | 142° |
| 2026-04-25 22:00 | 56.82100 | 40.81061 | 26999 ft | 447 kts | 141° |
| 2026-04-25 22:00 | 56.79654 | 40.84603 | 26999 ft | 448 kts | 142° |
| 2026-04-25 22:01 | 56.77246 | 40.88089 | 26999 ft | 448 kts | 142° |
| 2026-04-25 22:01 | 56.74799 | 40.91621 | 26999 ft | 448 kts | 142° |
| 2026-04-25 22:01 | 56.72346 | 40.95158 | 26997 ft | 448 kts | 142° |
| 2026-04-25 22:01 | 56.70666 | 40.97327 | 26989 ft | 447 kts | 150° |
| 2026-04-25 22:02 | 56.66766 | 40.99700 | 26994 ft | 446 kts | 174° |
| 2026-04-25 22:02 | 56.63670 | 40.99529 | 27006 ft | 444 kts | 189° |
| 2026-04-25 22:02 | 56.60635 | 40.98373 | 27014 ft | 444 kts | 194° |
| 2026-04-25 22:02 | 56.57668 | 40.96960 | 27013 ft | 444 kts | 196° |
| 2026-04-25 22:03 | 56.54715 | 40.95397 | 27009 ft | 445 kts | 197° |
| 2026-04-25 22:03 | 56.51764 | 40.93712 | 27003 ft | 445 kts | 198° |
| 2026-04-25 22:03 | 56.48898 | 40.91555 | 26996 ft | 444 kts | 211° |
| 2026-04-25 22:03 | 56.46540 | 40.88053 | 27001 ft | 443 kts | 228° |
| 2026-04-25 22:04 | 56.44564 | 40.83754 | 27010 ft | 443 kts | 231° |
| 2026-04-25 22:04 | 56.42558 | 40.79520 | 27006 ft | 443 kts | 227° |
| 2026-04-25 22:04 | 56.40371 | 40.75639 | 27003 ft | 443 kts | 222° |
| 2026-04-25 22:04 | 56.38026 | 40.71999 | 27003 ft | 444 kts | 220° |
| 2026-04-25 22:05 | 56.35649 | 40.68401 | 27002 ft | 444 kts | 220° |
| 2026-04-25 22:05 | 56.33320 | 40.64839 | 27000 ft | 444 kts | 220° |
| 2026-04-25 22:05 | 56.30970 | 40.61174 | 26998 ft | 444 kts | 221° |
| 2026-04-25 22:05 | 56.28637 | 40.57496 | 26999 ft | 444 kts | 221° |
| 2026-04-25 22:06 | 56.26339 | 40.53866 | 26999 ft | 445 kts | 221° |
| 2026-04-25 22:06 | 56.24002 | 40.50180 | 26998 ft | 445 kts | 221° |
| 2026-04-25 22:06 | 56.21692 | 40.46547 | 26998 ft | 445 kts | 221° |
| 2026-04-25 22:06 | 56.19356 | 40.42883 | 26996 ft | 445 kts | 221° |
| 2026-04-25 22:07 | 56.17005 | 40.39203 | 26998 ft | 445 kts | 221° |
| 2026-04-25 22:07 | 56.15456 | 40.36782 | 26998 ft | 445 kts | 221° |
| 2026-04-25 22:07 | 56.12355 | 40.31939 | 26998 ft | 446 kts | 221° |
| 2026-04-25 22:07 | 56.10009 | 40.28281 | 26998 ft | 446 kts | 221° |
| 2026-04-25 22:08 | 56.07659 | 40.24627 | 26998 ft | 446 kts | 221° |
| 2026-04-25 22:08 | 56.05346 | 40.21032 | 26998 ft | 446 kts | 221° |
| 2026-04-25 22:08 | 56.02999 | 40.17394 | 26999 ft | 446 kts | 221° |
| 2026-04-25 22:08 | 56.00646 | 40.13750 | 26998 ft | 446 kts | 221° |
| 2026-04-25 22:09 | 55.98292 | 40.10114 | 26999 ft | 446 kts | 221° |
| 2026-04-25 22:09 | 55.95942 | 40.06487 | 26999 ft | 446 kts | 221° |
| 2026-04-25 22:09 | 55.93616 | 40.02906 | 26901 ft | 448 kts | 221° |
| 2026-04-25 22:09 | 55.91236 | 39.99244 | 26752 ft | 450 kts | 221° |
| 2026-04-25 22:10 | 55.88850 | 39.95582 | 26605 ft | 452 kts | 221° |
| 2026-04-25 22:10 | 55.86489 | 39.91962 | 26458 ft | 454 kts | 221° |
| 2026-04-25 22:10 | 55.84081 | 39.88279 | 26307 ft | 455 kts | 221° |
| 2026-04-25 22:10 | 55.81917 | 39.84219 | 26152 ft | 456 kts | 235° |
| 2026-04-25 22:11 | 55.80459 | 39.79229 | 26075 ft | 455 kts | 248° |
| 2026-04-25 22:11 | 55.79373 | 39.73933 | 26040 ft | 454 kts | 252° |
| 2026-04-25 22:11 | 55.78520 | 39.68546 | 26023 ft | 452 kts | 258° |
| 2026-04-25 22:11 | 55.78072 | 39.63070 | 26014 ft | 451 kts | 264° |
| 2026-04-25 22:12 | 55.77796 | 39.57518 | 26008 ft | 450 kts | 265° |
| 2026-04-25 22:12 | 55.77527 | 39.51963 | 26003 ft | 448 kts | 264° |
| 2026-04-25 22:12 | 55.77196 | 39.46513 | 26001 ft | 447 kts | 263° |
| 2026-04-25 22:12 | 55.76938 | 39.42808 | 26000 ft | 447 kts | 263° |
| 2026-04-25 22:13 | 55.76425 | 39.35540 | 26000 ft | 445 kts | 263° |
| 2026-04-25 22:13 | 55.76089 | 39.30834 | 25999 ft | 444 kts | 263° |
| 2026-04-25 22:13 | 55.75710 | 39.25434 | 25903 ft | 443 kts | 263° |
| 2026-04-25 22:13 | 55.75333 | 39.20096 | 25529 ft | 427 kts | 263° |
| 2026-04-25 22:14 | 55.74965 | 39.14942 | 25146 ft | 412 kts | 263° |
| 2026-04-25 22:14 | 55.74617 | 39.10018 | 24704 ft | 400 kts | 263° |
| 2026-04-25 22:14 | 55.74268 | 39.05156 | 24264 ft | 391 kts | 263° |
| 2026-04-25 22:14 | 55.73925 | 39.00412 | 23827 ft | 382 kts | 263° |
| 2026-04-25 22:15 | 55.73590 | 38.95826 | 23400 ft | 375 kts | 263° |
| 2026-04-25 22:15 | 55.73390 | 38.91234 | 22960 ft | 368 kts | 270° |
| 2026-04-25 22:15 | 55.73527 | 38.86762 | 22534 ft | 363 kts | 276° |
| 2026-04-25 22:16 | 55.74105 | 38.77947 | 21676 ft | 354 kts | 277° |
| 2026-04-25 22:16 | 55.74366 | 38.73687 | 21254 ft | 350 kts | 275° |
| 2026-04-25 22:16 | 55.74583 | 38.69385 | 20826 ft | 347 kts | 275° |
| 2026-04-25 22:16 | 55.74793 | 38.65124 | 20410 ft | 344 kts | 275° |
| 2026-04-25 22:17 | 55.74995 | 38.60971 | 20180 ft | 335 kts | 275° |
| 2026-04-25 22:17 | 55.75417 | 38.57005 | 20148 ft | 320 kts | 293° |
| 2026-04-25 22:17 | 55.76418 | 38.53547 | 20153 ft | 311 kts | 301° |
| 2026-04-25 22:17 | 55.77634 | 38.50378 | 20126 ft | 317 kts | 307° |
| 2026-04-25 22:18 | 55.78988 | 38.47209 | 20107 ft | 322 kts | 307° |
| 2026-04-25 22:18 | 55.80347 | 38.43998 | 20088 ft | 324 kts | 306° |
| 2026-04-25 22:18 | 55.81653 | 38.40760 | 20072 ft | 327 kts | 305° |
| 2026-04-25 22:18 | 55.82982 | 38.37439 | 20054 ft | 331 kts | 306° |
| 2026-04-25 22:19 | 55.84357 | 38.34111 | 20009 ft | 335 kts | 307° |
| 2026-04-25 22:19 | 55.85763 | 38.30824 | 19754 ft | 338 kts | 307° |
| 2026-04-25 22:19 | 55.87209 | 38.27482 | 19519 ft | 341 kts | 307° |
| 2026-04-25 22:19 | 55.88652 | 38.24154 | 19277 ft | 343 kts | 307° |
| 2026-04-25 22:20 | 55.90117 | 38.20776 | 19031 ft | 345 kts | 307° |
| 2026-04-25 22:20 | 55.91590 | 38.17374 | 18788 ft | 346 kts | 307° |
| 2026-04-25 22:20 | 55.93052 | 38.13984 | 18533 ft | 342 kts | 307° |
| 2026-04-25 22:20 | 55.94493 | 38.10641 | 18274 ft | 336 kts | 307° |
| 2026-04-25 22:21 | 55.95887 | 38.07398 | 18028 ft | 329 kts | 307° |
| 2026-04-25 22:21 | 55.97272 | 38.04176 | 17772 ft | 323 kts | 307° |
| 2026-04-25 22:21 | 55.98630 | 38.01011 | 17498 ft | 319 kts | 307° |
| 2026-04-25 22:21 | 55.99969 | 37.97829 | 17190 ft | 319 kts | 302° |
| 2026-04-25 22:22 | 56.00817 | 37.94208 | 16890 ft | 321 kts | 285° |
| 2026-04-25 22:22 | 56.01322 | 37.90286 | 16592 ft | 322 kts | 280° |
| 2026-04-25 22:22 | 56.01694 | 37.86352 | 16306 ft | 324 kts | 279° |
| 2026-04-25 22:22 | 56.02046 | 37.82375 | 15991 ft | 324 kts | 279° |
| 2026-04-25 22:23 | 56.02702 | 37.78542 | 15646 ft | 323 kts | 301° |
| 2026-04-25 22:23 | 56.04226 | 37.75691 | 15335 ft | 322 kts | 324° |
| 2026-04-25 22:23 | 56.06179 | 37.73692 | 15025 ft | 322 kts | 334° |
| 2026-04-25 22:23 | 56.08194 | 37.72075 | 14714 ft | 318 kts | 336° |
| 2026-04-25 22:24 | 56.10230 | 37.70540 | 14392 ft | 314 kts | 337° |
| 2026-04-25 22:24 | 56.12247 | 37.69071 | 14061 ft | 311 kts | 342° |
| 2026-04-25 22:24 | 56.14373 | 37.68589 | 13731 ft | 305 kts | 359° |
| 2026-04-25 22:24 | 56.16440 | 37.68740 | 13450 ft | 292 kts | 5° |
| 2026-04-25 22:25 | 56.18411 | 37.69118 | 13241 ft | 279 kts | 7° |
| 2026-04-25 22:25 | 56.20327 | 37.69557 | 13021 ft | 276 kts | 7° |
| 2026-04-25 22:25 | 56.22239 | 37.69939 | 12793 ft | 279 kts | 5° |
| 2026-04-25 22:25 | 56.24176 | 37.70234 | 12576 ft | 285 kts | 4° |
| 2026-04-25 22:26 | 56.26180 | 37.70518 | 12361 ft | 289 kts | 4° |
| 2026-04-25 22:26 | 56.28181 | 37.70828 | 12141 ft | 285 kts | 3° |
| 2026-04-25 22:26 | 56.30083 | 37.70248 | 11898 ft | 281 kts | 333° |
| 2026-04-25 22:26 | 56.31652 | 37.68200 | 11682 ft | 278 kts | 316° |
| 2026-04-25 22:27 | 56.32936 | 37.65620 | 11434 ft | 273 kts | 308° |
| 2026-04-25 22:27 | 56.34086 | 37.62955 | 11151 ft | 264 kts | 307° |
| 2026-04-25 22:27 | 56.35173 | 37.60399 | 10870 ft | 258 kts | 307° |
| 2026-04-25 22:27 | 56.36277 | 37.57858 | 10648 ft | 256 kts | 308° |
| 2026-04-25 22:28 | 56.37397 | 37.55398 | 10551 ft | 250 kts | 309° |
| 2026-04-25 22:28 | 56.38438 | 37.52923 | 10502 ft | 242 kts | 304° |
| 2026-04-25 22:28 | 56.39351 | 37.50452 | 10476 ft | 234 kts | 302° |
| 2026-04-25 22:28 | 56.40230 | 37.47958 | 10470 ft | 241 kts | 302° |
| 2026-04-25 22:29 | 56.41154 | 37.45334 | 10482 ft | 251 kts | 302° |
| 2026-04-25 22:29 | 56.42108 | 37.42639 | 10491 ft | 257 kts | 303° |
| 2026-04-25 22:29 | 56.42986 | 37.39858 | 10477 ft | 260 kts | 287° |
| 2026-04-25 22:30 | 56.43381 | 37.33315 | 10495 ft | 264 kts | 271° |
| 2026-04-25 22:30 | 56.43420 | 37.30010 | 10492 ft | 267 kts | 271° |
| 2026-04-25 22:30 | 56.43456 | 37.26655 | 10486 ft | 264 kts | 271° |
| 2026-04-25 22:30 | 56.43495 | 37.24451 | 10482 ft | 262 kts | 272° |
| 2026-04-25 22:31 | 56.43207 | 37.20315 | 10457 ft | 240 kts | 249° |
| 2026-04-25 22:31 | 56.42564 | 37.17635 | 10443 ft | 224 kts | 244° |
| 2026-04-25 22:31 | 56.41881 | 37.15233 | 10439 ft | 211 kts | 242° |
| 2026-04-25 22:31 | 56.41195 | 37.12907 | 10443 ft | 210 kts | 242° |
| 2026-04-25 22:32 | 56.40509 | 37.10557 | 10454 ft | 211 kts | 240° |
| 2026-04-25 22:32 | 56.39434 | 37.08823 | 10451 ft | 212 kts | 197° |
| 2026-04-25 22:32 | 56.37994 | 37.08897 | 10494 ft | 210 kts | 161° |
| 2026-04-25 22:32 | 56.36672 | 37.10063 | 10509 ft | 214 kts | 144° |
| 2026-04-25 22:33 | 56.35528 | 37.11777 | 10514 ft | 219 kts | 136° |
| 2026-04-25 22:33 | 56.34422 | 37.13726 | 10512 ft | 224 kts | 134° |
| 2026-04-25 22:33 | 56.33694 | 37.15060 | 10507 ft | 226 kts | 134° |
| 2026-04-25 22:33 | 56.32200 | 37.17742 | 10496 ft | 229 kts | 136° |
| 2026-04-25 22:34 | 56.31023 | 37.19724 | 10356 ft | 232 kts | 137° |
| 2026-04-25 22:34 | 56.30228 | 37.21025 | 10227 ft | 232 kts | 138° |
| 2026-04-25 22:34 | 56.29045 | 37.22948 | 10022 ft | 226 kts | 137° |
| 2026-04-25 22:34 | 56.27894 | 37.24840 | 9807 ft | 221 kts | 137° |
| 2026-04-25 22:35 | 56.26776 | 37.26695 | 9586 ft | 216 kts | 137° |
| 2026-04-25 22:35 | 56.25689 | 37.28490 | 9371 ft | 212 kts | 138° |
| 2026-04-25 22:35 | 56.24433 | 37.29807 | 9088 ft | 208 kts | 163° |
| 2026-04-25 22:35 | 56.23055 | 37.30498 | 8829 ft | 206 kts | 167° |
| 2026-04-25 22:36 | 56.21670 | 37.31089 | 8585 ft | 204 kts | 167° |
| 2026-04-25 22:36 | 56.20268 | 37.31695 | 8348 ft | 208 kts | 167° |
| 2026-04-25 22:36 | 56.18848 | 37.32340 | 8114 ft | 211 kts | 165° |
| 2026-04-25 22:36 | 56.17523 | 37.33398 | 7852 ft | 215 kts | 136° |
| 2026-04-25 22:37 | 56.16852 | 37.35753 | 7625 ft | 215 kts | 99° |
| 2026-04-25 22:37 | 56.16726 | 37.38436 | 7402 ft | 216 kts | 86° |
| 2026-04-25 22:37 | 56.16965 | 37.41064 | 7182 ft | 217 kts | 75° |
| 2026-04-25 22:37 | 56.17382 | 37.43672 | 6950 ft | 218 kts | 72° |
| 2026-04-25 22:38 | 56.17841 | 37.46279 | 6707 ft | 219 kts | 71° |
| 2026-04-25 22:38 | 56.18287 | 37.48829 | 6448 ft | 213 kts | 73° |
| 2026-04-25 22:38 | 56.18691 | 37.51359 | 6187 ft | 208 kts | 74° |
| 2026-04-25 22:38 | 56.19054 | 37.53799 | 6048 ft | 198 kts | 75° |
| 2026-04-25 22:39 | 56.19400 | 37.56153 | 5841 ft | 197 kts | 75° |
| 2026-04-25 22:39 | 56.19585 | 37.58588 | 5569 ft | 199 kts | 100° |
| 2026-04-25 22:39 | 56.18903 | 37.60700 | 5314 ft | 198 kts | 133° |
| 2026-04-25 22:39 | 56.17935 | 37.62447 | 5087 ft | 198 kts | 137° |
| 2026-04-25 22:40 | 56.16928 | 37.64145 | 4850 ft | 198 kts | 137° |
| 2026-04-25 22:40 | 56.15928 | 37.65837 | 4658 ft | 195 kts | 137° |
| 2026-04-25 22:40 | 56.14976 | 37.67471 | 4564 ft | 187 kts | 136° |
| 2026-04-25 22:40 | 56.14072 | 37.69087 | 4514 ft | 178 kts | 135° |
| 2026-04-25 22:41 | 56.13227 | 37.70627 | 4484 ft | 168 kts | 135° |
| 2026-04-25 22:41 | 56.12440 | 37.72068 | 4468 ft | 161 kts | 135° |
| 2026-04-25 22:41 | 56.11630 | 37.73552 | 4484 ft | 171 kts | 135° |
| 2026-04-25 22:41 | 56.10780 | 37.75104 | 4509 ft | 181 kts | 135° |
| 2026-04-25 22:42 | 56.09836 | 37.76685 | 4510 ft | 190 kts | 148° |
| 2026-04-25 22:42 | 56.08547 | 37.77033 | 4425 ft | 193 kts | 196° |
| 2026-04-25 22:42 | 56.07340 | 37.76133 | 4340 ft | 188 kts | 208° |
| 2026-04-25 22:42 | 56.06196 | 37.75014 | 4231 ft | 185 kts | 211° |
| 2026-04-25 22:43 | 56.05084 | 37.73849 | 4109 ft | 184 kts | 211° |
| 2026-04-25 22:43 | 56.04059 | 37.72524 | 3921 ft | 182 kts | 231° |
| 2026-04-25 22:43 | 56.03613 | 37.70480 | 3740 ft | 179 kts | 258° |
| 2026-04-25 22:43 | 56.03350 | 37.68323 | 3633 ft | 172 kts | 258° |
| 2026-04-25 22:44 | 56.03105 | 37.66333 | 3556 ft | 153 kts | 258° |
| 2026-04-25 22:44 | 56.02885 | 37.64643 | 3516 ft | 131 kts | 257° |
| 2026-04-25 22:44 | 56.02673 | 37.63107 | 3448 ft | 124 kts | 256° |
| 2026-04-25 22:44 | 56.02435 | 37.61585 | 3257 ft | 128 kts | 255° |
| 2026-04-25 22:45 | 56.02189 | 37.60030 | 3095 ft | 131 kts | 255° |
| 2026-04-25 22:45 | 56.01942 | 37.58460 | 2930 ft | 134 kts | 255° |
| 2026-04-25 22:45 | 56.01691 | 37.56835 | 2765 ft | 137 kts | 255° |
| 2026-04-25 22:45 | 56.01442 | 37.55203 | 2576 ft | 135 kts | 256° |
| 2026-04-25 22:46 | 56.01198 | 37.53578 | 2391 ft | 134 kts | 255° |
| 2026-04-25 22:46 | 56.00956 | 37.51966 | 2202 ft | 133 kts | 256° |
| 2026-04-25 22:46 | 56.00720 | 37.50382 | 2028 ft | 132 kts | 256° |
| 2026-04-25 22:46 | 56.00482 | 37.48796 | 1843 ft | 131 kts | 256° |
| 2026-04-25 22:47 | 56.00246 | 37.47225 | 1673 ft | 130 kts | 255° |
| 2026-04-25 22:47 | 56.00014 | 37.45673 | 1498 ft | 128 kts | 255° |
| 2026-04-25 22:47 | 55.99785 | 37.44151 | 1335 ft | 127 kts | 255° |
| 2026-04-25 22:47 | 55.99557 | 37.42628 | 1164 ft | 126 kts | 255° |
| 2026-04-25 22:48 | 55.99332 | 37.41132 | 1000 ft | 126 kts | 255° |
| 2026-04-25 22:48 | 55.99099 | 37.39583 | 834 ft | 132 kts | 255° |
| 2026-04-25 22:48 | 55.98857 | 37.37971 | 685 ft | 134 kts | 255° |
| 2026-04-25 22:48 | 55.98631 | 37.36462 | 638 ft | 110 kts | 255° |
| 2026-04-25 22:49 | 55.98480 | 37.35441 | 639 ft | 65 kts | 254° |
| 2026-04-25 22:49 | 55.98298 | 37.34773 | 636 ft | 54 kts | 227° |
| 2026-04-25 22:49 | 55.98178 | 37.34654 | 642 ft | 0 kts | 126° |
| 2026-04-25 22:49 | 55.98179 | 37.34664 | 641 ft | 3 kts | 70° |
| 2026-04-25 22:50 | 55.98204 | 37.34780 | 640 ft | 16 kts | 68° |
| 2026-04-25 22:50 | 55.98238 | 37.34993 | 642 ft | 20 kts | 74° |
| 2026-04-25 22:50 | 55.98281 | 37.35262 | 644 ft | 25 kts | 74° |
| 2026-04-25 22:50 | 55.98330 | 37.35573 | 641 ft | 27 kts | 74° |
| 2026-04-25 22:51 | 55.98366 | 37.35907 | 644 ft | 28 kts | 103° |
| 2026-04-25 22:51 | 55.98226 | 37.36041 | 641 ft | 24 kts | 165° |
| 2026-04-25 22:51 | 55.98060 | 37.36121 | 637 ft | 26 kts | 165° |
| 2026-04-25 22:51 | 55.97884 | 37.36205 | 637 ft | 27 kts | 165° |
| 2026-04-25 22:52 | 55.97702 | 37.36294 | 639 ft | 28 kts | 163° |
| 2026-04-25 22:52 | 55.97520 | 37.36417 | 637 ft | 29 kts | 142° |
| 2026-04-25 22:52 | 55.97402 | 37.36706 | 644 ft | 30 kts | 115° |
| 2026-04-25 22:52 | 55.97340 | 37.36928 | 642 ft | 30 kts | 117° |
| 2026-04-25 22:53 | 55.97211 | 37.37380 | 640 ft | 31 kts | 117° |
| 2026-04-25 22:53 | 55.97114 | 37.37736 | 644 ft | 32 kts | 114° |
| 2026-04-25 22:53 | 55.97086 | 37.38020 | 642 ft | 23 kts | 83° |
| 2026-04-25 22:53 | 55.97105 | 37.38317 | 638 ft | 25 kts | 78° |
| 2026-04-25 22:54 | 55.97124 | 37.38442 | 637 ft | 0 kts | 75° |
| 2026-04-25 22:56 | 55.97125 | 37.38447 | 637 ft | 3 kts | 75° |
| 2026-04-25 22:56 | 55.97135 | 37.38513 | 639 ft | 7 kts | 75° |
| 2026-04-25 22:56 | 55.97150 | 37.38612 | 638 ft | 9 kts | 75° |
| 2026-04-25 22:57 | 55.97169 | 37.38736 | 637 ft | 11 kts | 75° |
| 2026-04-25 22:57 | 55.97192 | 37.38886 | 639 ft | 13 kts | 75° |
| 2026-04-25 22:57 | 55.97218 | 37.39057 | 640 ft | 15 kts | 75° |
| 2026-04-25 22:57 | 55.97248 | 37.39252 | 641 ft | 17 kts | 75° |
| 2026-04-25 22:58 | 55.97281 | 37.39471 | 637 ft | 19 kts | 75° |
| 2026-04-25 22:58 | 55.97317 | 37.39708 | 644 ft | 21 kts | 75° |
| 2026-04-25 22:58 | 55.97366 | 37.39879 | 637 ft | 6 kts | 6° |
| 2026-04-25 22:58 | 55.97387 | 37.39869 | 642 ft | 6 kts | 340° |
| 2026-04-25 22:59 | 55.97445 | 37.39831 | 642 ft | 11 kts | 340° |
| 2026-04-25 22:59 | 55.97526 | 37.39777 | 638 ft | 13 kts | 348° |
| 2026-04-25 22:59 | 55.97623 | 37.39733 | 637 ft | 16 kts | 345° |
| 2026-04-25 22:59 | 55.97732 | 37.39685 | 637 ft | 15 kts | 5° |
| 2026-04-25 23:00 | 55.97747 | 37.39764 | 643 ft | 5 kts | 133° |
| 2026-04-25 23:00 | 55.97723 | 37.39784 | 637 ft | 0 kts | 163° |
| 2026-04-25 23:00 | 55.97722 | 37.39784 | 637 ft | 0 kts | 163° |